WMKP/PEN METAR and TAF weather

Enter ICAO airport designator
Station Type Date Time Source
WMKP METAR 2019/07/17 18:30 UTC NOAA

WMKP 171830Z 00000KT 8000 FEW025 SCT140 BKN270 28/25 Q1007 NOSIG


Station Type Date Time Source
WMKP Decoded METAR 2019/07/17 18:30 UTC NOAA

Penang / Bayan Lepas, Malaysia (WMKP) 05-18N 100-16E 4M
Jul 17, 2019 - 02:30 PM EDT / 2019.07.17 1830 UTC
Wind: Calm:0
Visibility: 4 mile(s):0
Sky conditions: mostly cloudy
Temperature: 82 F (28 C)
Dew Point: 77 F (25 C)
Relative Humidity: 83%
Pressure (altimeter): 29.74 in. Hg (1007 hPa)
ob: WMKP 171830Z 00000KT 8000 FEW025 SCT140 BKN270 28/25 Q1007 NOSIG
cycle: 18

Station Type Date Time Source
WMKP TAF 2019/07/17 18:12 UTC NOAA

TAF WMKP 171700Z 1718/1818 VRB03KT 8000 FEW025
TEMPO 1722/1802 5000 TSRA FEW010 FEW017CB
BECMG 1803/1805 22010KT 9000 FEW020
BECMG 1810/1812 VRB03KT FEW025

Example: see airport list